sensor_id;sensor_type;location;lat;lon;timestamp;pressure;altitude;pressure_sealevel;temperature;humidity
76126;BME280;65174;48.138;21.002;2023-07-31T00:09:50;99016.56;;;18.34;100.00
76126;BME280;65174;48.138;21.002;2023-07-31T00:12:52;99012.16;;;18.35;100.00
76126;BME280;65174;48.138;21.002;2023-07-31T00:15:54;99010.88;;;18.39;100.00
76126;BME280;65174;48.138;21.002;2023-07-31T00:18:56;99010.06;;;18.38;100.00
76126;BME280;65174;48.138;21.002;2023-07-31T00:21:58;99012.63;;;18.30;100.00
76126;BME280;65174;48.138;21.002;2023-07-31T00:25:00;99015.25;;;18.30;100.00
76126;BME280;65174;48.138;21.002;2023-07-31T00:28:02;99012.78;;;18.28;100.00
76126;BME280;65174;48.138;21.002;2023-07-31T00:31:04;99018.06;;;18.37;100.00
76126;BME280;65174;48.138;21.002;2023-07-31T00:34:06;99020.72;;;18.45;100.00
76126;BME280;65174;48.138;21.002;2023-07-31T00:37:09;99008.25;;;18.31;100.00
76126;BME280;65174;48.138;21.002;2023-07-31T00:40:11;99003.97;;;18.30;100.00
76126;BME280;65174;48.138;21.002;2023-07-31T00:43:15;98991.59;;;18.32;100.00
76126;BME280;65174;48.138;21.002;2023-07-31T00:46:17;98984.22;;;18.27;100.00
76126;BME280;65174;48.138;21.002;2023-07-31T00:49:20;98993.38;;;17.97;100.00
76126;BME280;65174;48.138;21.002;2023-07-31T00:52:23;99001.06;;;17.99;100.00
76126;BME280;65174;48.138;21.002;2023-07-31T00:55:25;98994.09;;;18.07;100.00
76126;BME280;65174;48.138;21.002;2023-07-31T00:58:28;98986.31;;;18.15;100.00
76126;BME280;65174;48.138;21.002;2023-07-31T01:01:30;98984.19;;;18.19;100.00
76126;BME280;65174;48.138;21.002;2023-07-31T01:04:32;98985.94;;;18.10;100.00
76126;BME280;65174;48.138;21.002;2023-07-31T01:10:46;98993.44;;;18.05;100.00
76126;BME280;65174;48.138;21.002;2023-07-31T01:13:51;98998.13;;;18.02;100.00
76126;BME280;65174;48.138;21.002;2023-07-31T01:16:55;99005.94;;;17.94;100.00
76126;BME280;65174;48.138;21.002;2023-07-31T01:20:00;99000.00;;;17.84;100.00
76126;BME280;65174;48.138;21.002;2023-07-31T01:26:30;99006.25;;;17.65;100.00
76126;BME280;65174;48.138;21.002;2023-07-31T01:29:49;99005.22;;;17.58;100.00
76126;BME280;65174;48.138;21.002;2023-07-31T01:32:54;98999.94;;;17.50;100.00
76126;BME280;65174;48.138;21.002;2023-07-31T01:35:57;98994.66;;;17.42;100.00
76126;BME280;65174;48.138;21.002;2023-07-31T01:39:00;98990.44;;;17.49;100.00
76126;BME280;65174;48.138;21.002;2023-07-31T01:42:02;98984.56;;;17.47;100.00
76126;BME280;65174;48.138;21.002;2023-07-31T01:45:05;98981.59;;;17.42;100.00
76126;BME280;65174;48.138;21.002;2023-07-31T01:48:07;98973.63;;;17.43;100.00
76126;BME280;65174;48.138;21.002;2023-07-31T01:51:09;98969.84;;;17.38;100.00
76126;BME280;65174;48.138;21.002;2023-07-31T01:54:11;98969.84;;;17.38;100.00
76126;BME280;65174;48.138;21.002;2023-07-31T01:57:13;98973.25;;;17.38;100.00
76126;BME280;65174;48.138;21.002;2023-07-31T02:00:15;98969.69;;;17.39;100.00
76126;BME280;65174;48.138;21.002;2023-07-31T02:03:18;98980.22;;;17.30;100.00
76126;BME280;65174;48.138;21.002;2023-07-31T02:06:20;98981.69;;;17.32;100.00
76126;BME280;65174;48.138;21.002;2023-07-31T02:09:22;98979.63;;;17.18;100.00
76126;BME280;65174;48.138;21.002;2023-07-31T02:12:24;98973.28;;;17.21;100.00
76126;BME280;65174;48.138;21.002;2023-07-31T02:15:26;98982.44;;;17.25;100.00
76126;BME280;65174;48.138;21.002;2023-07-31T02:18:27;98988.28;;;17.19;100.00
76126;BME280;65174;48.138;21.002;2023-07-31T02:21:29;98981.88;;;17.13;100.00
76126;BME280;65174;48.138;21.002;2023-07-31T02:24:31;98981.34;;;17.10;100.00
76126;BME280;65174;48.138;21.002;2023-07-31T02:27:33;98972.41;;;17.12;100.00
76126;BME280;65174;48.138;21.002;2023-07-31T02:30:36;98971.81;;;17.18;100.00
76126;BME280;65174;48.138;21.002;2023-07-31T02:33:38;98964.97;;;17.17;100.00
76126;BME280;65174;48.138;21.002;2023-07-31T02:36:40;98964.16;;;17.17;99.96
76126;BME280;65174;48.138;21.002;2023-07-31T02:39:42;98967.47;;;17.09;99.82
76126;BME280;65174;48.138;21.002;2023-07-31T02:42:44;98968.31;;;17.10;99.85
76126;BME280;65174;48.138;21.002;2023-07-31T02:45:51;98971.59;;;17.12;99.04
76126;BME280;65174;48.138;21.002;2023-07-31T02:48:53;98973.06;;;16.97;99.02
76126;BME280;65174;48.138;21.002;2023-07-31T02:51:55;98977.50;;;16.96;99.03
76126;BME280;65174;48.138;21.002;2023-07-31T02:54:58;98980.09;;;16.96;98.79
76126;BME280;65174;48.138;21.002;2023-07-31T02:58:00;98983.16;;;16.92;98.93
76126;BME280;65174;48.138;21.002;2023-07-31T03:01:02;98974.94;;;16.87;99.18
76126;BME280;65174;48.138;21.002;2023-07-31T03:04:04;98985.44;;;16.95;99.15
76126;BME280;65174;48.138;21.002;2023-07-31T03:07:06;98978.75;;;16.92;99.04
76126;BME280;65174;48.138;21.002;2023-07-31T03:10:08;98977.63;;;16.95;98.62
76126;BME280;65174;48.138;21.002;2023-07-31T03:13:10;98984.09;;;16.91;98.58
76126;BME280;65174;48.138;21.002;2023-07-31T03:16:12;98979.44;;;16.94;98.27
76126;BME280;65174;48.138;21.002;2023-07-31T03:19:14;98977.78;;;16.93;97.47
76126;BME280;65174;48.138;21.002;2023-07-31T03:22:16;98973.69;;;16.91;97.21
76126;BME280;65174;48.138;21.002;2023-07-31T03:25:18;98979.56;;;16.93;97.07
76126;BME280;65174;48.138;21.002;2023-07-31T03:28:20;98986.84;;;16.89;97.09
76126;BME280;65174;48.138;21.002;2023-07-31T03:31:22;98987.03;;;16.88;97.26
76126;BME280;65174;48.138;21.002;2023-07-31T03:34:24;98984.41;;;16.88;97.09
76126;BME280;65174;48.138;21.002;2023-07-31T03:37:26;98993.19;;;16.87;97.53
76126;BME280;65174;48.138;21.002;2023-07-31T03:40:28;99000.56;;;16.91;97.48
76126;BME280;65174;48.138;21.002;2023-07-31T03:43:39;98997.06;;;16.83;97.79
76126;BME280;65174;48.138;21.002;2023-07-31T03:46:41;98998.81;;;16.82;98.41
76126;BME280;65174;48.138;21.002;2023-07-31T03:49:43;99001.97;;;16.86;98.33
76126;BME280;65174;48.138;21.002;2023-07-31T03:52:45;99007.31;;;16.84;98.45
76126;BME280;65174;48.138;21.002;2023-07-31T03:55:47;99013.28;;;16.77;99.06
76126;BME280;65174;48.138;21.002;2023-07-31T03:58:49;99015.03;;;16.58;100.00
76126;BME280;65174;48.138;21.002;2023-07-31T04:01:51;99014.47;;;16.82;99.63
76126;BME280;65174;48.138;21.002;2023-07-31T04:04:53;99015.28;;;16.83;99.31
76126;BME280;65174;48.138;21.002;2023-07-31T04:07:55;99015.22;;;16.75;99.29
76126;BME280;65174;48.138;21.002;2023-07-31T04:10:57;99014.25;;;16.76;99.40
76126;BME280;65174;48.138;21.002;2023-07-31T04:13:59;99011.97;;;16.90;99.59
76126;BME280;65174;48.138;21.002;2023-07-31T04:17:01;99016.13;;;17.01;99.05
76126;BME280;65174;48.138;21.002;2023-07-31T04:20:03;99015.50;;;17.60;96.96
76126;BME280;65174;48.138;21.002;2023-07-31T04:23:05;98999.72;;;18.28;91.91
76126;BME280;65174;48.138;21.002;2023-07-31T04:26:07;98992.59;;;18.88;88.60
76126;BME280;65174;48.138;21.002;2023-07-31T04:29:09;98994.56;;;19.27;85.78
76126;BME280;65174;48.138;21.002;2023-07-31T04:32:10;98993.09;;;19.64;85.10
76126;BME280;65174;48.138;21.002;2023-07-31T04:35:12;98989.69;;;19.56;84.53
76126;BME280;65174;48.138;21.002;2023-07-31T04:38:14;98983.19;;;19.99;83.21
76126;BME280;65174;48.138;21.002;2023-07-31T04:41:16;98985.47;;;20.02;82.53
76126;BME280;65174;48.138;21.002;2023-07-31T04:44:18;98984.84;;;20.00;82.68
76126;BME280;65174;48.138;21.002;2023-07-31T04:47:20;98982.41;;;19.98;83.07
76126;BME280;65174;48.138;21.002;2023-07-31T04:50:22;98984.09;;;19.67;85.50
76126;BME280;65174;48.138;21.002;2023-07-31T04:53:24;98984.34;;;19.96;84.01
76126;BME280;65174;48.138;21.002;2023-07-31T04:56:26;98975.97;;;20.01;83.19
76126;BME280;65174;48.138;21.002;2023-07-31T04:59:27;98979.88;;;20.05;83.20
76126;BME280;65174;48.138;21.002;2023-07-31T05:02:29;98989.53;;;20.12;83.93
76126;BME280;65174;48.138;21.002;2023-07-31T05:05:32;98993.78;;;20.13;83.53
76126;BME280;65174;48.138;21.002;2023-07-31T05:08:34;98995.34;;;19.92;85.36
76126;BME280;65174;48.138;21.002;2023-07-31T05:15:37;98996.97;;;19.85;87.00
76126;BME280;65174;48.138;21.002;2023-07-31T05:18:39;99000.75;;;19.82;87.83
76126;BME280;65174;48.138;21.002;2023-07-31T05:21:41;98993.88;;;19.89;87.47
76126;BME280;65174;48.138;21.002;2023-07-31T05:24:43;99007.78;;;19.90;87.67
76126;BME280;65174;48.138;21.002;2023-07-31T05:27:45;99006.47;;;19.94;87.87
76126;BME280;65174;48.138;21.002;2023-07-31T05:30:47;99007.91;;;20.04;87.51
76126;BME280;65174;48.138;21.002;2023-07-31T05:33:50;99010.47;;;20.28;86.04
76126;BME280;65174;48.138;21.002;2023-07-31T05:36:52;99017.34;;;20.29;85.54
76126;BME280;65174;48.138;21.002;2023-07-31T05:39:54;99016.81;;;20.34;84.98
76126;BME280;65174;48.138;21.002;2023-07-31T05:42:55;99021.97;;;20.03;85.06
76126;BME280;65174;48.138;21.002;2023-07-31T05:45:57;99026.53;;;20.09;85.07
76126;BME280;65174;48.138;21.002;2023-07-31T05:48:59;99029.88;;;19.79;86.57
76126;BME280;65174;48.138;21.002;2023-07-31T05:52:03;99037.81;;;20.26;85.68
76126;BME280;65174;48.138;21.002;2023-07-31T05:55:05;99042.56;;;20.69;83.84
76126;BME280;65174;48.138;21.002;2023-07-31T05:58:07;99045.31;;;20.68;83.57
76126;BME280;65174;48.138;21.002;2023-07-31T06:01:09;99041.03;;;20.75;82.55
76126;BME280;65174;48.138;21.002;2023-07-31T06:04:11;99040.00;;;20.84;82.72
76126;BME280;65174;48.138;21.002;2023-07-31T06:07:13;99037.72;;;20.50;83.81
76126;BME280;65174;48.138;21.002;2023-07-31T06:10:15;99041.44;;;20.55;82.36
76126;BME280;65174;48.138;21.002;2023-07-31T06:13:17;99031.34;;;20.44;82.95
76126;BME280;65174;48.138;21.002;2023-07-31T06:16:40;99036.25;;;20.78;81.40
76126;BME280;65174;48.138;21.002;2023-07-31T06:20:22;99039.19;;;21.14;79.88
76126;BME280;65174;48.138;21.002;2023-07-31T06:23:24;99028.81;;;20.59;81.24
76126;BME280;65174;48.138;21.002;2023-07-31T06:26:26;99036.16;;;21.02;78.86
76126;BME280;65174;48.138;21.002;2023-07-31T06:29:27;99031.78;;;21.40;78.86
76126;BME280;65174;48.138;21.002;2023-07-31T11:19:32;98951.56;;;27.07;47.04
76126;BME280;65174;48.138;21.002;2023-07-31T11:22:35;98947.13;;;27.01;49.07
76126;BME280;65174;48.138;21.002;2023-07-31T11:25:39;98942.00;;;26.81;47.98
76126;BME280;65174;48.138;21.002;2023-07-31T11:28:46;98943.94;;;26.92;46.57
76126;BME280;65174;48.138;21.002;2023-07-31T11:31:48;98948.59;;;26.59;48.38
76126;BME280;65174;48.138;21.002;2023-07-31T11:34:54;98946.84;;;26.46;47.93
76126;BME280;65174;48.138;21.002;2023-07-31T11:37:56;98951.97;;;26.41;48.50
76126;BME280;65174;48.138;21.002;2023-07-31T11:41:00;98943.88;;;26.67;50.15
76126;BME280;65174;48.138;21.002;2023-07-31T11:44:04;98950.34;;;27.09;45.64
76126;BME280;65174;48.138;21.002;2023-07-31T11:47:26;98948.56;;;27.03;47.71
76126;BME280;65174;48.138;21.002;2023-07-31T11:50:28;98948.13;;;27.06;45.38
76126;BME280;65174;48.138;21.002;2023-07-31T11:54:03;98942.63;;;26.77;49.79
76126;BME280;65174;48.138;21.002;2023-07-31T11:57:06;98939.66;;;27.22;45.73
76126;BME280;65174;48.138;21.002;2023-07-31T12:00:09;98937.88;;;27.41;46.63
76126;BME280;65174;48.138;21.002;2023-07-31T12:03:13;98937.00;;;26.98;46.48
76126;BME280;65174;48.138;21.002;2023-07-31T12:06:15;98935.31;;;27.03;46.38
76126;BME280;65174;48.138;21.002;2023-07-31T12:09:17;98929.97;;;26.85;48.75
76126;BME280;65174;48.138;21.002;2023-07-31T12:12:20;98937.91;;;26.85;47.50
76126;BME280;65174;48.138;21.002;2023-07-31T12:15:38;98928.88;;;27.17;44.78
76126;BME280;65174;48.138;21.002;2023-07-31T12:18:41;98928.50;;;26.51;46.54
76126;BME280;65174;48.138;21.002;2023-07-31T12:21:43;98930.88;;;26.28;47.85
76126;BME280;65174;48.138;21.002;2023-07-31T12:24:45;98923.53;;;26.68;48.45
76126;BME280;65174;48.138;21.002;2023-07-31T12:27:47;98919.75;;;27.13;47.88
76126;BME280;65174;48.138;21.002;2023-07-31T12:30:49;98914.56;;;27.25;46.80
76126;BME280;65174;48.138;21.002;2023-07-31T12:33:51;98913.22;;;27.40;48.44
76126;BME280;65174;48.138;21.002;2023-07-31T12:36:53;98911.34;;;27.66;46.99
76126;BME280;65174;48.138;21.002;2023-07-31T12:39:55;98911.38;;;27.84;45.55
76126;BME280;65174;48.138;21.002;2023-07-31T12:43:01;98902.41;;;27.17;45.77
76126;BME280;65174;48.138;21.002;2023-07-31T12:46:06;98906.16;;;27.34;46.70
76126;BME280;65174;48.138;21.002;2023-07-31T12:49:09;98894.84;;;27.45;47.49
76126;BME280;65174;48.138;21.002;2023-07-31T12:52:12;98889.25;;;27.72;45.58
76126;BME280;65174;48.138;21.002;2023-07-31T12:55:14;98885.72;;;27.60;47.87
76126;BME280;65174;48.138;21.002;2023-07-31T12:58:16;98874.97;;;27.54;48.77
76126;BME280;65174;48.138;21.002;2023-07-31T13:01:18;98881.19;;;27.42;47.31
76126;BME280;65174;48.138;21.002;2023-07-31T13:04:20;98877.28;;;27.02;49.53
76126;BME280;65174;48.138;21.002;2023-07-31T13:07:23;98871.75;;;27.28;50.25
76126;BME280;65174;48.138;21.002;2023-07-31T13:10:25;98867.34;;;27.65;47.44
76126;BME280;65174;48.138;21.002;2023-07-31T13:13:28;98869.72;;;27.84;47.77
76126;BME280;65174;48.138;21.002;2023-07-31T13:16:33;98874.38;;;27.89;46.69
76126;BME280;65174;48.138;21.002;2023-07-31T13:19:36;98865.84;;;28.05;46.22
76126;BME280;65174;48.138;21.002;2023-07-31T13:22:38;98871.13;;;27.50;46.56
76126;BME280;65174;48.138;21.002;2023-07-31T13:25:40;98868.06;;;27.53;46.11
76126;BME280;65174;48.138;21.002;2023-07-31T13:28:42;98865.75;;;27.57;45.65
76126;BME280;65174;48.138;21.002;2023-07-31T13:31:44;98863.63;;;27.66;48.11
76126;BME280;65174;48.138;21.002;2023-07-31T13:34:47;98865.47;;;27.65;47.17
76126;BME280;65174;48.138;21.002;2023-07-31T13:37:49;98861.06;;;27.41;50.28
76126;BME280;65174;48.138;21.002;2023-07-31T13:40:51;98858.56;;;27.64;48.57
76126;BME280;65174;48.138;21.002;2023-07-31T13:43:53;98866.56;;;27.76;46.47
76126;BME280;65174;48.138;21.002;2023-07-31T13:46:55;98869.06;;;27.10;47.23
76126;BME280;65174;48.138;21.002;2023-07-31T13:49:57;98855.50;;;26.75;48.04
76126;BME280;65174;48.138;21.002;2023-07-31T13:52:59;98849.94;;;27.08;49.61
76126;BME280;65174;48.138;21.002;2023-07-31T13:56:01;98852.56;;;27.32;49.32
76126;BME280;65174;48.138;21.002;2023-07-31T13:59:03;98851.41;;;27.46;48.75
76126;BME280;65174;48.138;21.002;2023-07-31T14:02:05;98849.06;;;27.38;50.17
76126;BME280;65174;48.138;21.002;2023-07-31T14:05:08;98847.69;;;27.29;46.20
76126;BME280;65174;48.138;21.002;2023-07-31T14:08:11;98849.06;;;27.38;49.09
76126;BME280;65174;48.138;21.002;2023-07-31T14:11:13;98847.66;;;27.36;47.65
76126;BME280;65174;48.138;21.002;2023-07-31T14:14:15;98840.00;;;26.79;45.23
76126;BME280;65174;48.138;21.002;2023-07-31T14:17:16;98836.28;;;26.86;47.23
76126;BME280;65174;48.138;21.002;2023-07-31T14:20:19;98838.03;;;27.17;46.60
76126;BME280;65174;48.138;21.002;2023-07-31T14:23:21;98837.69;;;27.31;47.03
76126;BME280;65174;48.138;21.002;2023-07-31T14:26:23;98837.69;;;26.89;48.05
76126;BME280;65174;48.138;21.002;2023-07-31T14:29:45;98830.91;;;27.17;50.14
76126;BME280;65174;48.138;21.002;2023-07-31T14:33:36;98834.78;;;27.58;45.30
76126;BME280;65174;48.138;21.002;2023-07-31T14:37:39;98827.19;;;27.61;47.53
76126;BME280;65174;48.138;21.002;2023-07-31T14:41:20;98835.06;;;27.68;46.62
76126;BME280;65174;48.138;21.002;2023-07-31T14:44:22;98829.22;;;27.23;46.49
76126;BME280;65174;48.138;21.002;2023-07-31T14:47:24;98816.41;;;27.20;46.17
76126;BME280;65174;48.138;21.002;2023-07-31T14:50:26;98809.94;;;27.16;48.29
76126;BME280;65174;48.138;21.002;2023-07-31T14:53:29;98800.59;;;27.13;50.80
76126;BME280;65174;48.138;21.002;2023-07-31T14:56:30;98805.34;;;27.47;50.03
76126;BME280;65174;48.138;21.002;2023-07-31T14:59:32;98804.38;;;27.60;47.29
76126;BME280;65174;48.138;21.002;2023-07-31T15:02:34;98810.88;;;27.64;47.84
76126;BME280;65174;48.138;21.002;2023-07-31T15:05:37;98803.00;;;27.39;47.49
76126;BME280;65174;48.138;21.002;2023-07-31T15:09:11;98808.13;;;27.52;49.48
76126;BME280;65174;48.138;21.002;2023-07-31T15:12:13;98813.59;;;27.58;47.72
76126;BME280;65174;48.138;21.002;2023-07-31T15:15:15;98811.59;;;27.35;48.09
76126;BME280;65174;48.138;21.002;2023-07-31T15:18:18;98810.13;;;27.39;46.90
76126;BME280;65174;48.138;21.002;2023-07-31T15:21:20;98805.34;;;27.47;48.95
76126;BME280;65174;48.138;21.002;2023-07-31T15:24:24;98798.41;;;27.28;48.40
76126;BME280;65174;48.138;21.002;2023-07-31T15:27:26;98802.63;;;27.36;47.30
76126;BME280;65174;48.138;21.002;2023-07-31T15:30:29;98800.75;;;27.54;46.39
76126;BME280;65174;48.138;21.002;2023-07-31T15:33:31;98801.97;;;27.59;46.57
76126;BME280;65174;48.138;21.002;2023-07-31T15:36:33;98803.88;;;27.51;45.69
76126;BME280;65174;48.138;21.002;2023-07-31T15:39:35;98798.34;;;27.35;46.61
76126;BME280;65174;48.138;21.002;2023-07-31T15:42:37;98794.56;;;27.24;46.63
76126;BME280;65174;48.138;21.002;2023-07-31T15:45:41;98793.28;;;27.09;46.25
76126;BME280;65174;48.138;21.002;2023-07-31T15:48:43;98791.97;;;27.00;48.92
76126;BME280;65174;48.138;21.002;2023-07-31T15:51:45;98788.50;;;26.99;46.95
76126;BME280;65174;48.138;21.002;2023-07-31T15:54:47;98795.28;;;27.13;47.69
76126;BME280;65174;48.138;21.002;2023-07-31T15:57:49;98793.53;;;27.07;46.81
76126;BME280;65174;48.138;21.002;2023-07-31T16:00:51;98793.88;;;26.93;49.61
76126;BME280;65174;48.138;21.002;2023-07-31T16:03:53;98784.22;;;26.80;47.69
76126;BME280;65174;48.138;21.002;2023-07-31T16:06:55;98793.81;;;26.99;48.69
76126;BME280;65174;48.138;21.002;2023-07-31T16:09:57;98785.69;;;26.76;47.04
76126;BME280;65174;48.138;21.002;2023-07-31T16:12:59;98782.75;;;26.84;48.75
76126;BME280;65174;48.138;21.002;2023-07-31T16:16:21;98784.97;;;26.87;47.95
76126;BME280;65174;48.138;21.002;2023-07-31T16:19:44;98787.16;;;26.90;48.69
76126;BME280;65174;48.138;21.002;2023-07-31T16:22:46;98797.53;;;26.92;49.85
76126;BME280;65174;48.138;21.002;2023-07-31T16:25:48;98786.28;;;26.71;50.86
76126;BME280;65174;48.138;21.002;2023-07-31T16:28:50;98792.13;;;26.55;51.00
76126;BME280;65174;48.138;21.002;2023-07-31T16:31:52;98790.47;;;26.30;51.04
76126;BME280;65174;48.138;21.002;2023-07-31T16:34:58;98788.19;;;26.02;52.70
76126;BME280;65174;48.138;21.002;2023-07-31T16:38:00;98789.88;;;25.90;53.09
76126;BME280;65174;48.138;21.002;2023-07-31T16:41:02;98787.72;;;25.74;53.88
76126;BME280;65174;48.138;21.002;2023-07-31T16:44:04;98785.84;;;25.81;54.68
76126;BME280;65174;48.138;21.002;2023-07-31T16:47:06;98792.19;;;25.73;55.85
76126;BME280;65174;48.138;21.002;2023-07-31T16:50:09;98788.84;;;25.53;54.80
76126;BME280;65174;48.138;21.002;2023-07-31T16:53:11;98791.72;;;25.39;57.18
76126;BME280;65174;48.138;21.002;2023-07-31T16:56:13;98797.25;;;25.11;58.07
76126;BME280;65174;48.138;21.002;2023-07-31T16:59:18;98791.59;;;25.01;59.17
76126;BME280;65174;48.138;21.002;2023-07-31T17:02:20;98792.00;;;24.98;59.94
76126;BME280;65174;48.138;21.002;2023-07-31T17:05:22;98790.78;;;24.94;57.73
76126;BME280;65174;48.138;21.002;2023-07-31T17:08:25;98795.03;;;25.01;57.40
76126;BME280;65174;48.138;21.002;2023-07-31T17:11:27;98796.44;;;24.91;57.19
76126;BME280;65174;48.138;21.002;2023-07-31T17:14:29;98792.00;;;24.91;56.99
76126;BME280;65174;48.138;21.002;2023-07-31T17:17:31;98793.81;;;24.84;57.03
76126;BME280;65174;48.138;21.002;2023-07-31T17:20:33;98790.78;;;24.87;57.19
76126;BME280;65174;48.138;21.002;2023-07-31T17:23:35;98788.75;;;24.83;60.92
76126;BME280;65174;48.138;21.002;2023-07-31T17:26:37;98808.22;;;24.69;60.01
76126;BME280;65174;48.138;21.002;2023-07-31T17:29:39;98805.34;;;24.57;60.34
76126;BME280;65174;48.138;21.002;2023-07-31T17:32:41;98802.13;;;24.62;60.28
76126;BME280;65174;48.138;21.002;2023-07-31T17:35:43;98815.13;;;24.57;59.76
76126;BME280;65174;48.138;21.002;2023-07-31T17:38:45;98813.91;;;24.53;60.23
76126;BME280;65174;48.138;21.002;2023-07-31T17:41:47;98812.25;;;24.52;60.79
76126;BME280;65174;48.138;21.002;2023-07-31T17:44:50;98811.66;;;24.50;60.17
76126;BME280;65174;48.138;21.002;2023-07-31T17:47:53;98817.31;;;24.46;59.88
76126;BME280;65174;48.138;21.002;2023-07-31T17:50:55;98823.59;;;24.39;59.48
76126;BME280;65174;48.138;21.002;2023-07-31T17:53:57;98822.16;;;24.30;60.08
76126;BME280;65174;48.138;21.002;2023-07-31T17:56:59;98816.69;;;24.25;60.18
76126;BME280;65174;48.138;21.002;2023-07-31T18:00:02;98817.50;;;24.19;59.84
76126;BME280;65174;48.138;21.002;2023-07-31T18:03:07;98826.38;;;24.11;59.87
76126;BME280;65174;48.138;21.002;2023-07-31T18:06:14;98833.84;;;24.01;61.17
76126;BME280;65174;48.138;21.002;2023-07-31T18:09:16;98834.63;;;23.95;60.82
76126;BME280;65174;48.138;21.002;2023-07-31T18:12:18;98836.63;;;23.87;61.04
76126;BME280;65174;48.138;21.002;2023-07-31T18:15:20;98840.88;;;23.81;60.59
76126;BME280;65174;48.138;21.002;2023-07-31T18:18:22;98843.88;;;23.78;60.66
76126;BME280;65174;48.138;21.002;2023-07-31T18:21:24;98846.22;;;23.60;61.14
76126;BME280;65174;48.138;21.002;2023-07-31T18:24:26;98836.47;;;23.54;61.71
76126;BME280;65174;48.138;21.002;2023-07-31T18:27:28;98845.56;;;23.51;61.14
76126;BME280;65174;48.138;21.002;2023-07-31T18:30:30;98843.09;;;23.43;61.51
76126;BME280;65174;48.138;21.002;2023-07-31T18:33:32;98851.59;;;23.39;61.56
76126;BME280;65174;48.138;21.002;2023-07-31T18:36:38;98849.06;;;23.31;61.27
76126;BME280;65174;48.138;21.002;2023-07-31T18:39:42;98849.03;;;23.24;60.89
76126;BME280;65174;48.138;21.002;2023-07-31T18:42:46;98851.47;;;23.26;61.22
76126;BME280;65174;48.138;21.002;2023-07-31T19:37:32;98882.94;;;22.64;63.53
76126;BME280;65174;48.138;21.002;2023-07-31T19:59:06;98896.75;;;22.16;66.81
76126;BME280;65174;48.138;21.002;2023-07-31T20:02:08;98889.66;;;21.95;67.80
76126;BME280;65174;48.138;21.002;2023-07-31T20:05:10;98890.00;;;21.92;68.00
76126;BME280;65174;48.138;21.002;2023-07-31T20:08:12;98890.00;;;21.92;68.18
76126;BME280;65174;48.138;21.002;2023-07-31T20:11:14;98887.47;;;21.84;68.44
76126;BME280;65174;48.138;21.002;2023-07-31T20:14:16;98887.06;;;21.72;69.16
76126;BME280;65174;48.138;21.002;2023-07-31T20:17:18;98891.44;;;21.65;69.42
76126;BME280;65174;48.138;21.002;2023-07-31T20:20:20;98881.38;;;21.54;70.19
76126;BME280;65174;48.138;21.002;2023-07-31T20:23:22;98881.28;;;21.48;70.69
76126;BME280;65174;48.138;21.002;2023-07-31T20:27:17;98885.72;;;21.47;70.96
76126;BME280;65174;48.138;21.002;2023-07-31T20:30:19;98884.00;;;21.54;70.85
76126;BME280;65174;48.138;21.002;2023-07-31T20:33:21;98886.53;;;21.62;70.51
76126;BME280;65174;48.138;21.002;2023-07-31T20:36:23;98881.47;;;21.61;69.90
76126;BME280;65174;48.138;21.002;2023-07-31T20:39:25;98878.13;;;21.52;69.76
76126;BME280;65174;48.138;21.002;2023-07-31T20:42:27;98884.75;;;21.48;71.18
76126;BME280;65174;48.138;21.002;2023-07-31T20:45:29;98886.53;;;21.33;71.09
76126;BME280;65174;48.138;21.002;2023-07-31T20:48:38;98883.09;;;21.32;71.09
76126;BME280;65174;48.138;21.002;2023-07-31T20:51:40;98884.09;;;21.31;72.16
76126;BME280;65174;48.138;21.002;2023-07-31T20:54:45;98877.03;;;21.32;71.18
76126;BME280;65174;48.138;21.002;2023-07-31T20:57:47;98883.03;;;21.41;70.51
76126;BME280;65174;48.138;21.002;2023-07-31T21:00:49;98886.34;;;21.49;71.35
76126;BME280;65174;48.138;21.002;2023-07-31T21:03:51;98892.50;;;21.42;69.34
76126;BME280;65174;48.138;21.002;2023-07-31T21:06:55;98887.53;;;21.32;70.58
76126;BME280;65174;48.138;21.002;2023-07-31T21:09:57;98893.56;;;21.32;70.84
76126;BME280;65174;48.138;21.002;2023-07-31T21:12:59;98885.28;;;21.44;69.96
76126;BME280;65174;48.138;21.002;2023-07-31T21:16:01;98885.47;;;21.57;69.87
76126;BME280;65174;48.138;21.002;2023-07-31T21:19:03;64582.16;;;-140.13;100.00
76126;BME280;65174;48.138;21.002;2023-07-31T21:22:05;98880.72;;;21.23;72.51
76126;BME280;65174;48.138;21.002;2023-07-31T21:29:18;98884.19;;;21.38;71.28
76126;BME280;65174;48.138;21.002;2023-07-31T21:32:20;98879.19;;;21.28;72.32
76126;BME280;65174;48.138;21.002;2023-07-31T21:35:22;98884.94;;;21.09;73.37
76126;BME280;65174;48.138;21.002;2023-07-31T21:38:24;98877.50;;;20.98;74.76
76126;BME280;65174;48.138;21.002;2023-07-31T21:41:26;98865.59;;;20.73;75.78
76126;BME280;65174;48.138;21.002;2023-07-31T21:44:28;98863.38;;;20.62;76.49
76126;BME280;65174;48.138;21.002;2023-07-31T21:47:30;98860.88;;;20.46;78.30
76126;BME280;65174;48.138;21.002;2023-07-31T21:50:32;98858.91;;;20.48;77.48
76126;BME280;65174;48.138;21.002;2023-07-31T21:53:34;98848.16;;;20.57;77.44
76126;BME280;65174;48.138;21.002;2023-07-31T21:56:36;98844.56;;;20.58;77.09
76126;BME280;65174;48.138;21.002;2023-07-31T21:59:39;98840.38;;;20.49;77.93
76126;BME280;65174;48.138;21.002;2023-07-31T22:02:41;98840.38;;;20.49;77.68
76126;BME280;65174;48.138;21.002;2023-07-31T22:05:43;98838.28;;;20.45;78.52
76126;BME280;65174;48.138;21.002;2023-07-31T22:08:45;98840.25;;;20.43;78.94
76126;BME280;65174;48.138;21.002;2023-07-31T22:11:48;98839.34;;;20.36;79.22
76126;BME280;65174;48.138;21.002;2023-07-31T22:14:49;98847.19;;;20.36;79.06
76126;BME280;65174;48.138;21.002;2023-07-31T22:17:51;98848.28;;;20.41;78.63